createdAt,value
2018-11-25T00:01:14.381Z,16.50
2018-11-25T00:03:45.976Z,24.50
2018-11-25T00:06:17.613Z,24.87
2018-11-25T00:08:49.193Z,21.57
2018-11-25T00:11:20.616Z,31.50
2018-11-25T00:13:52.304Z,20.90
2018-11-25T00:16:23.834Z,28.37
2018-11-25T00:18:55.411Z,23.77
2018-11-25T00:21:27.002Z,22.70
2018-11-25T00:23:58.530Z,26.13
2018-11-25T00:26:30.046Z,19.00
2018-11-25T00:29:01.628Z,23.47
2018-11-25T00:31:33.050Z,21.63
2018-11-25T00:34:04.727Z,22.87
2018-11-25T00:36:36.214Z,27.47
2018-11-25T00:39:10.193Z,25.33
2018-11-25T00:41:41.741Z,24.83
2018-11-25T00:44:13.281Z,22.50
2018-11-25T00:46:44.766Z,23.00
2018-11-25T00:49:16.187Z,25.53
2018-11-25T00:51:47.758Z,16.50
2018-11-25T00:54:19.188Z,19.20
2018-11-25T00:56:50.758Z,26.30
2018-11-25T00:59:22.386Z,24.50
2018-11-25T01:01:54.006Z,27.80
2018-11-25T01:04:25.673Z,23.33
2018-11-25T01:06:57.202Z,23.37
2018-11-25T01:09:28.889Z,24.77
2018-11-25T01:12:00.504Z,32.67
2018-11-25T01:14:32.046Z,33.10
2018-11-25T01:17:03.724Z,32.60
2018-11-25T01:19:35.424Z,29.90
2018-11-25T01:22:07.204Z,29.13
2018-11-25T01:24:38.678Z,27.30
2018-11-25T01:27:10.202Z,21.17
2018-11-25T01:29:42.001Z,16.67
2018-11-25T01:32:13.593Z,26.40
2018-11-25T01:34:45.105Z,25.27
2018-11-25T01:37:16.595Z,18.47
2018-11-25T01:39:48.110Z,24.13
2018-11-25T01:42:19.806Z,18.33
2018-11-25T01:44:51.326Z,20.30
2018-11-25T01:47:22.910Z,19.40
2018-11-25T01:49:54.533Z,21.27
2018-11-25T01:52:26.070Z,19.57
2018-11-25T01:54:57.527Z,23.20
2018-11-25T01:57:29.134Z,18.60
2018-11-25T02:00:00.633Z,16.30
2018-11-25T02:02:32.239Z,20.87
2018-11-25T02:05:03.773Z,20.53
2018-11-25T02:07:35.398Z,18.33
2018-11-25T02:10:12.625Z,18.27
2018-11-25T02:12:44.170Z,17.07
2018-11-25T02:15:16.870Z,27.03
2018-11-25T02:17:48.330Z,16.17
2018-11-25T02:20:22.734Z,23.30
2018-11-25T02:22:55.721Z,24.33
2018-11-25T02:25:27.442Z,26.40
2018-11-25T02:27:59.001Z,31.30
2018-11-25T02:30:30.604Z,26.63
2018-11-25T02:33:02.109Z,26.97
2018-11-25T02:35:33.538Z,23.63
2018-11-25T02:38:05.105Z,16.93
2018-11-25T02:40:36.634Z,16.77
2018-11-25T02:43:08.424Z,22.30
2018-11-25T02:45:40.019Z,16.33
2018-11-25T02:48:11.434Z,21.43
2018-11-25T02:50:42.886Z,18.63
2018-11-25T02:53:14.474Z,21.80
2018-11-25T02:55:45.988Z,16.70
2018-11-25T02:58:17.583Z,18.07
2018-11-25T03:00:49.299Z,25.63
2018-11-25T03:03:20.681Z,27.53
2018-11-25T03:05:52.293Z,27.30
2018-11-25T03:08:23.910Z,30.87
2018-11-25T03:10:55.604Z,26.20
2018-11-25T03:13:27.171Z,26.43
2018-11-25T03:15:58.632Z,25.50
2018-11-25T03:18:30.188Z,27.33
2018-11-25T03:21:01.625Z,32.07
2018-11-25T03:23:33.138Z,28.93
2018-11-25T03:26:04.790Z,27.10
2018-11-25T03:28:36.434Z,30.23
2018-11-25T03:31:08.437Z,26.40
2018-11-25T03:33:40.006Z,28.10
2018-11-25T03:36:11.441Z,25.37
2018-11-25T03:38:43.006Z,32.67
2018-11-25T03:41:14.548Z,31.00
2018-11-25T03:43:46.112Z,31.07
2018-11-25T03:46:17.717Z,31.37
2018-11-25T03:48:49.242Z,23.40
2018-11-25T03:51:20.826Z,26.03
2018-11-25T03:53:52.340Z,24.47
2018-11-25T03:56:23.869Z,26.97
2018-11-25T03:58:55.358Z,24.27
2018-11-25T04:01:27.042Z,21.47
2018-11-25T04:03:58.559Z,29.47
2018-11-25T04:06:29.983Z,23.80
2018-11-25T04:09:01.562Z,26.57
2018-11-25T04:11:32.991Z,25.17
2018-11-25T04:14:04.615Z,22.47
2018-11-25T04:16:36.264Z,23.27
2018-11-25T04:19:08.187Z,28.97
2018-11-25T04:21:39.833Z,26.90
2018-11-25T04:24:11.437Z,32.87
2018-11-25T04:26:43.166Z,29.90
2018-11-25T04:29:14.808Z,27.53
2018-11-25T04:31:46.277Z,27.23
2018-11-25T04:34:17.786Z,27.87
2018-11-25T04:36:49.367Z,26.97
2018-11-25T04:39:20.964Z,29.20
2018-11-25T04:41:52.471Z,25.93
2018-11-25T04:44:24.070Z,22.37
2018-11-25T04:46:55.702Z,28.80
2018-11-25T04:49:27.343Z,34.63
2018-11-25T04:51:58.997Z,36.63
2018-11-25T04:54:30.559Z,40.67
2018-11-25T04:57:02.018Z,39.10
2018-11-25T04:59:33.526Z,39.50
2018-11-25T05:02:05.023Z,39.77
2018-11-25T05:04:36.490Z,52.67
2018-11-25T05:07:08.530Z,42.63
2018-11-25T05:09:40.076Z,52.30
2018-11-25T05:12:11.542Z,31.20
2018-11-25T05:14:43.198Z,36.90
2018-11-25T05:17:14.736Z,33.90
2018-11-25T05:19:46.223Z,35.20
2018-11-25T05:22:17.844Z,40.73
2018-11-25T05:24:49.398Z,35.03
2018-11-25T05:27:21.001Z,35.57
2018-11-25T05:29:52.613Z,31.20
2018-11-25T05:32:24.035Z,28.23
2018-11-25T05:34:55.627Z,35.07
2018-11-25T05:37:27.219Z,30.37
2018-11-25T05:39:58.737Z,23.37
2018-11-25T05:42:30.320Z,30.43
2018-11-25T05:45:01.856Z,29.57
2018-11-25T05:47:33.586Z,31.70
2018-11-25T05:50:04.959Z,30.00
2018-11-25T05:52:36.654Z,29.53
2018-11-25T05:55:10.129Z,31.47
2018-11-25T05:57:41.848Z,29.00
2018-11-25T06:00:36.104Z,32.77
2018-11-25T06:03:07.706Z,30.60
2018-11-25T06:05:39.176Z,30.17
2018-11-25T06:08:10.805Z,35.43
2018-11-25T06:10:42.532Z,28.07
2018-11-25T06:13:13.958Z,29.70
2018-11-25T06:15:45.481Z,31.53
2018-11-25T06:18:17.221Z,32.40
2018-11-25T06:20:48.685Z,32.37
2018-11-25T06:23:20.275Z,30.63
2018-11-25T06:25:52.334Z,30.90
2018-11-25T06:28:23.969Z,33.63
2018-11-25T06:30:55.656Z,30.63
2018-11-25T06:33:27.284Z,30.93
2018-11-25T06:35:58.810Z,28.50
2018-11-25T06:38:30.363Z,29.73
2018-11-25T06:41:01.811Z,32.87
2018-11-25T06:43:33.385Z,30.90
2018-11-25T06:46:07.017Z,31.63
2018-11-25T06:48:38.539Z,30.97
2018-11-25T06:51:09.986Z,29.33
2018-11-25T06:53:41.530Z,32.97
2018-11-25T06:56:13.027Z,35.43
2018-11-25T06:58:44.741Z,32.70
2018-11-25T07:01:16.350Z,34.27
2018-11-25T07:03:47.870Z,34.70
2018-11-25T07:06:19.280Z,29.60
2018-11-25T07:08:50.855Z,34.93
2018-11-25T07:11:22.300Z,29.47
2018-11-25T07:13:53.869Z,31.80
2018-11-25T07:16:25.359Z,29.23
2018-11-25T07:18:56.966Z,34.63
2018-11-25T07:21:28.406Z,28.53
2018-11-25T07:23:59.977Z,29.67
2018-11-25T07:26:31.502Z,28.87
2018-11-25T07:29:03.101Z,30.20
2018-11-25T07:31:34.618Z,31.33
2018-11-25T07:34:06.419Z,31.00
2018-11-25T07:36:38.037Z,29.47
2018-11-25T07:39:09.836Z,28.10
2018-11-25T07:41:41.582Z,26.93
2018-11-25T07:44:13.141Z,24.40
2018-11-25T07:46:44.726Z,28.97
2018-11-25T07:49:16.254Z,26.67
2018-11-25T07:51:47.899Z,27.43
2018-11-25T07:54:19.358Z,27.47
2018-11-25T07:56:50.943Z,29.03
2018-11-25T07:59:22.566Z,29.00
2018-11-25T08:01:54.206Z,25.63
2018-11-25T08:04:25.669Z,27.80
2018-11-25T08:06:57.266Z,26.63
2018-11-25T08:09:28.790Z,28.17
2018-11-25T08:12:00.422Z,23.20
2018-11-25T08:14:31.894Z,27.37
2018-11-25T08:17:03.720Z,26.50
2018-11-25T08:19:35.375Z,29.83
2018-11-25T08:22:06.945Z,22.97
2018-11-25T08:24:38.361Z,24.53
2018-11-25T08:27:09.980Z,23.80
2018-11-25T08:29:41.766Z,19.80
2018-11-25T08:32:13.378Z,22.17
2018-11-25T08:34:44.799Z,26.87
2018-11-25T08:37:16.379Z,29.47
2018-11-25T08:39:47.800Z,26.77
2018-11-25T08:42:19.377Z,21.90
2018-11-25T08:44:50.803Z,22.53
2018-11-25T08:47:22.385Z,22.63
2018-11-25T08:49:53.879Z,24.13
2018-11-25T08:52:25.522Z,22.77
2018-11-25T08:54:57.131Z,21.97
2018-11-25T08:57:28.695Z,22.13
2018-11-25T09:00:00.188Z,22.87
2018-11-25T09:02:34.527Z,22.93
2018-11-25T09:05:09.718Z,20.63
2018-11-25T09:07:41.281Z,20.47
2018-11-25T09:10:22.683Z,18.20
2018-11-25T09:12:56.636Z,17.23
2018-11-25T09:15:29.730Z,15.87
2018-11-25T09:18:01.228Z,22.23
2018-11-25T09:20:32.760Z,22.90
2018-11-25T09:23:04.238Z,23.47
2018-11-25T09:25:35.923Z,19.17
2018-11-25T09:28:07.636Z,23.30
2018-11-25T09:30:39.282Z,24.50
2018-11-25T09:33:10.742Z,21.10
2018-11-25T09:35:42.175Z,21.80
2018-11-25T09:38:15.952Z,20.97
2018-11-25T09:40:49.650Z,17.30
2018-11-25T09:43:21.370Z,17.20
2018-11-25T09:45:53.495Z,15.67
2018-11-25T09:48:25.343Z,18.43
2018-11-25T09:50:56.951Z,20.13
2018-11-25T09:53:28.401Z,19.50
2018-11-25T09:56:00.069Z,18.47
2018-11-25T09:58:31.741Z,18.40
2018-11-25T10:01:03.442Z,18.73
2018-11-25T10:03:34.919Z,18.43
2018-11-25T10:06:06.998Z,18.27
2018-11-25T10:08:38.641Z,17.20
2018-11-25T10:11:10.350Z,22.37
2018-11-25T10:13:41.848Z,15.83
2018-11-25T10:16:13.560Z,15.13
2018-11-25T10:18:45.062Z,16.77
2018-11-25T10:21:16.657Z,16.87
2018-11-25T10:23:48.175Z,11.57
2018-11-25T10:26:19.590Z,18.60
2018-11-25T10:28:51.326Z,14.33
2018-11-25T10:31:22.825Z,14.20
2018-11-25T10:33:54.380Z,16.17
2018-11-25T10:36:26.066Z,14.67
2018-11-25T10:38:57.735Z,16.17
2018-11-25T10:41:29.253Z,11.63
2018-11-25T10:44:00.854Z,12.83
2018-11-25T10:46:32.373Z,14.43
2018-11-25T10:49:04.050Z,14.03
2018-11-25T10:51:35.561Z,20.60
2018-11-25T10:54:07.511Z,15.60
2018-11-25T10:56:39.043Z,12.43
2018-11-25T10:59:10.750Z,12.53
2018-11-25T11:01:54.070Z,12.20
2018-11-25T11:04:30.442Z,13.83
2018-11-25T11:07:06.931Z,15.33
2018-11-25T11:09:38.476Z,13.00
2018-11-25T11:12:10.091Z,14.13
2018-11-25T11:14:41.652Z,13.77
2018-11-25T11:17:13.262Z,12.57
2018-11-25T11:19:44.870Z,12.47
2018-11-25T11:22:16.425Z,12.87
2018-11-25T11:24:47.886Z,13.97
2018-11-25T11:27:19.310Z,13.07
2018-11-25T11:29:50.970Z,11.73
2018-11-25T11:32:22.637Z,13.00
2018-11-25T11:34:54.110Z,13.00
2018-11-25T11:37:25.794Z,12.93
2018-11-25T11:39:57.309Z,12.03
2018-11-25T11:42:29.015Z,10.70
2018-11-25T11:45:00.422Z,12.20
2018-11-25T11:47:31.850Z,12.53
2018-11-25T11:50:03.435Z,13.40
2018-11-25T11:52:34.882Z,13.20
2018-11-25T11:55:07.157Z,11.20
2018-11-25T11:57:38.739Z,10.67
2018-11-25T12:00:21.255Z,11.90
2018-11-25T12:02:52.863Z,12.17
2018-11-25T12:05:24.323Z,12.67
2018-11-25T12:07:55.960Z,11.80
2018-11-25T12:10:27.467Z,10.37
2018-11-25T12:12:59.073Z,11.77
2018-11-25T12:15:32.369Z,9.77
2018-11-25T12:18:03.920Z,8.80
2018-11-25T12:20:35.521Z,12.00
2018-11-25T12:23:08.095Z,11.70
2018-11-25T12:25:39.620Z,13.03
2018-11-25T12:28:11.261Z,13.17
2018-11-25T12:30:42.853Z,9.70
2018-11-25T12:33:14.425Z,11.10
2018-11-25T12:35:46.009Z,10.83
2018-11-25T12:38:17.581Z,10.73
2018-11-25T12:40:49.050Z,14.53
2018-11-25T12:43:20.470Z,12.00
2018-11-25T12:45:52.041Z,12.40
2018-11-25T12:48:23.638Z,12.30
2018-11-25T12:50:55.061Z,10.87
2018-11-25T12:53:26.470Z,11.57
2018-11-25T12:55:58.054Z,11.20
2018-11-25T12:58:29.543Z,11.77
2018-11-25T13:01:01.077Z,12.27
2018-11-25T13:03:32.542Z,13.07
2018-11-25T13:06:04.273Z,10.43
2018-11-25T13:08:35.697Z,10.70
2018-11-25T13:11:07.166Z,11.03
2018-11-25T13:13:38.591Z,13.03
2018-11-25T13:16:10.190Z,9.37
2018-11-25T13:18:41.595Z,13.10
2018-11-25T13:21:13.169Z,11.07
2018-11-25T13:23:44.511Z,10.73
2018-11-25T13:26:16.083Z,14.30
2018-11-25T13:28:47.614Z,11.40
2018-11-25T13:31:19.299Z,8.87
2018-11-25T13:33:57.350Z,10.53
2018-11-25T13:36:28.881Z,12.07
2018-11-25T13:39:00.505Z,14.30
2018-11-25T13:41:31.978Z,12.33
2018-11-25T13:44:03.563Z,14.57
2018-11-25T13:46:35.082Z,9.77
2018-11-25T13:49:06.671Z,8.37
2018-11-25T13:51:38.084Z,7.73
2018-11-25T13:54:09.534Z,7.57
2018-11-25T13:56:41.021Z,11.07
2018-11-25T13:59:12.542Z,14.97
2018-11-25T14:01:43.960Z,11.40
2018-11-25T14:04:15.531Z,16.50
2018-11-25T14:06:46.978Z,13.57
2018-11-25T14:09:18.659Z,12.73
2018-11-25T14:11:50.140Z,15.20
2018-11-25T14:14:21.646Z,15.70
2018-11-25T14:16:53.082Z,16.20
2018-11-25T14:19:24.650Z,11.20
2018-11-25T14:21:56.263Z,12.57
2018-11-25T14:24:27.871Z,13.27
2018-11-25T14:27:02.430Z,14.70
2018-11-25T14:29:34.046Z,15.77
2018-11-25T14:32:05.541Z,12.67
2018-11-25T14:34:37.086Z,13.67
2018-11-25T14:37:08.806Z,13.87
2018-11-25T14:39:40.269Z,14.20
2018-11-25T14:42:11.756Z,13.10
2018-11-25T14:44:43.271Z,11.37
2018-11-25T14:47:14.819Z,12.60
2018-11-25T14:49:46.286Z,12.33
2018-11-25T14:52:17.974Z,13.47
2018-11-25T14:54:51.390Z,14.43
2018-11-25T14:57:21.224Z,17.10
2018-11-25T14:59:55.300Z,12.97
2018-11-25T15:02:26.889Z,13.50
2018-11-25T15:04:58.549Z,15.87
2018-11-25T15:07:30.100Z,16.17
2018-11-25T15:10:01.669Z,15.07
2018-11-25T15:12:33.266Z,15.03
2018-11-25T15:15:05.187Z,13.63
2018-11-25T15:17:36.739Z,15.87
2018-11-25T15:20:11.188Z,16.03
2018-11-25T15:22:44.189Z,16.90
2018-11-25T15:25:22.279Z,15.37
2018-11-25T15:27:53.989Z,13.37
2018-11-25T15:30:25.576Z,14.50
2018-11-25T15:32:57.134Z,13.30
2018-11-25T15:35:28.600Z,12.20
2018-11-25T15:38:00.174Z,9.13
2018-11-25T15:40:33.656Z,6.40
2018-11-25T15:43:05.394Z,10.77
2018-11-25T15:45:36.756Z,13.57
2018-11-25T15:48:21.173Z,11.03
2018-11-25T15:50:52.817Z,13.10
2018-11-25T15:53:24.521Z,10.27
2018-11-25T15:55:59.468Z,12.33
2018-11-25T15:58:31.403Z,11.37
2018-11-25T16:01:02.871Z,14.27
2018-11-25T16:03:34.458Z,12.77
2018-11-25T16:06:17.626Z,14.67
2018-11-25T16:08:49.095Z,14.40
2018-11-25T16:11:20.861Z,14.27
2018-11-25T16:13:52.309Z,14.00
2018-11-25T16:16:23.769Z,13.83
2018-11-25T16:18:55.309Z,9.83
2018-11-25T16:21:27.482Z,12.63
2018-11-25T16:23:58.911Z,11.20
2018-11-25T16:26:33.650Z,14.13
2018-11-25T16:29:10.470Z,12.60
2018-11-25T16:31:42.034Z,11.97
2018-11-25T16:34:13.588Z,11.80
2018-11-25T16:36:45.191Z,14.93
2018-11-25T16:39:16.925Z,13.73
2018-11-25T16:41:48.577Z,13.77
2018-11-25T16:44:20.158Z,11.53
2018-11-25T16:46:51.766Z,10.60
2018-11-25T16:49:23.273Z,11.77
2018-11-25T16:51:54.710Z,9.37
2018-11-25T16:54:26.183Z,9.23
2018-11-25T16:56:57.539Z,9.07
2018-11-25T16:59:29.080Z,9.70
2018-11-25T17:02:00.544Z,12.40
2018-11-25T17:04:33.000Z,7.97
2018-11-25T17:07:04.498Z,8.63
2018-11-25T17:09:36.015Z,8.97
2018-11-25T17:12:07.665Z,10.03
2018-11-25T17:14:39.105Z,8.33
2018-11-25T17:17:10.537Z,8.27
2018-11-25T17:19:42.110Z,8.83
2018-11-25T17:22:16.631Z,9.33
2018-11-25T17:24:45.225Z,8.60
2018-11-25T17:27:16.643Z,10.27
2018-11-25T17:29:48.234Z,11.97
2018-11-25T17:32:19.722Z,9.73
2018-11-25T17:34:51.343Z,8.50
2018-11-25T17:37:22.802Z,9.87
2018-11-25T17:39:54.342Z,12.43
2018-11-25T17:42:25.697Z,10.60
2018-11-25T17:44:57.254Z,8.93
2018-11-25T17:47:28.671Z,8.67
2018-11-25T17:50:00.150Z,10.30
2018-11-25T17:52:31.575Z,9.33
2018-11-25T17:55:03.160Z,9.40
2018-11-25T17:57:34.592Z,11.60
2018-11-25T18:00:11.236Z,11.50
2018-11-25T18:02:42.829Z,9.87
2018-11-25T18:05:14.475Z,10.20
2018-11-25T18:07:45.947Z,10.53
2018-11-25T18:10:17.709Z,10.60
2018-11-25T18:12:49.073Z,10.50
2018-11-25T18:15:22.030Z,10.43
2018-11-25T18:18:07.374Z,12.77
2018-11-25T18:20:42.609Z,11.47
2018-11-25T18:23:14.109Z,8.97
2018-11-25T18:25:45.675Z,10.87
2018-11-25T18:28:17.227Z,10.80
2018-11-25T18:30:48.877Z,10.07
2018-11-25T18:33:20.350Z,11.93
2018-11-25T18:35:51.921Z,9.87
2018-11-25T18:38:23.533Z,10.77
2018-11-25T18:40:55.162Z,12.30
2018-11-25T18:43:26.755Z,9.97
2018-11-25T18:45:59.341Z,10.47
2018-11-25T18:48:30.247Z,10.77
2018-11-25T18:51:01.862Z,11.13
2018-11-25T18:53:33.362Z,10.57
2018-11-25T18:56:04.936Z,10.50
2018-11-25T18:58:36.293Z,10.23
2018-11-25T19:01:26.502Z,10.33
2018-11-25T19:03:58.001Z,9.73
2018-11-25T19:06:29.457Z,6.57
2018-11-25T19:09:00.921Z,6.97
2018-11-25T19:11:32.420Z,10.50
2018-11-25T19:14:03.958Z,12.63
2018-11-25T19:16:35.583Z,10.53
2018-11-25T19:19:07.444Z,11.47
2018-11-25T19:21:38.988Z,9.87
2018-11-25T19:24:10.422Z,8.73
2018-11-25T19:26:41.997Z,9.20
2018-11-25T19:29:13.538Z,9.50
2018-11-25T19:31:45.119Z,11.13
2018-11-25T19:34:16.597Z,10.67
2018-11-25T19:36:48.214Z,8.47
2018-11-25T19:39:19.745Z,8.70
2018-11-25T19:41:51.762Z,7.40
2018-11-25T19:44:23.438Z,8.10
2018-11-25T19:46:54.954Z,9.60
2018-11-25T19:49:26.543Z,7.47
2018-11-25T19:51:58.062Z,7.97
2018-11-25T19:54:29.601Z,9.23
2018-11-25T19:57:01.063Z,9.73
2018-11-25T19:59:32.654Z,8.10
2018-11-25T20:02:04.190Z,12.37
2018-11-25T20:04:35.877Z,8.50
2018-11-25T20:07:07.401Z,11.87
2018-11-25T20:09:39.083Z,9.73
2018-11-25T20:12:10.702Z,11.53
2018-11-25T20:14:42.265Z,10.03
2018-11-25T20:17:18.526Z,12.23
2018-11-25T20:19:50.158Z,10.70
2018-11-25T20:22:25.217Z,11.73
2018-11-25T20:24:56.748Z,9.50
2018-11-25T20:27:33.123Z,12.70
2018-11-25T20:30:05.450Z,14.33
2018-11-25T20:32:41.503Z,11.67
2018-11-25T20:35:13.125Z,11.10
2018-11-25T20:37:49.538Z,11.87
2018-11-25T20:40:21.198Z,10.13
2018-11-25T20:42:52.828Z,10.37
2018-11-25T20:45:29.467Z,10.27
2018-11-25T20:48:01.746Z,11.03
2018-11-25T20:50:33.098Z,11.57
2018-11-25T20:53:09.542Z,13.07
2018-11-25T20:55:41.011Z,11.23
2018-11-25T20:58:12.714Z,9.40
2018-11-25T21:00:44.808Z,10.67
2018-11-25T21:03:16.425Z,10.87
2018-11-25T21:05:47.923Z,12.47
2018-11-25T21:08:19.507Z,11.70
2018-11-25T21:10:50.906Z,13.20
2018-11-25T21:13:22.516Z,10.10
2018-11-25T21:15:54.026Z,13.17
2018-11-25T21:18:25.601Z,12.60
2018-11-25T21:20:57.046Z,13.20
2018-11-25T21:23:28.606Z,10.83
2018-11-25T21:26:00.044Z,9.97
2018-11-25T21:28:31.613Z,12.17
2018-11-25T21:31:03.143Z,8.43
2018-11-25T21:33:34.618Z,10.43
2018-11-25T21:36:06.382Z,11.00
2018-11-25T21:38:37.944Z,11.27
2018-11-25T21:41:09.534Z,9.37
2018-11-25T21:43:41.037Z,12.83
2018-11-25T21:46:12.641Z,11.77
2018-11-25T21:48:44.118Z,11.77
2018-11-25T21:51:15.699Z,12.60
2018-11-25T21:53:47.113Z,10.90
2018-11-25T21:56:18.750Z,12.30
2018-11-25T21:58:50.290Z,13.20
2018-11-25T22:01:21.904Z,12.57
2018-11-25T22:03:53.462Z,13.87
2018-11-25T22:06:25.027Z,13.60
2018-11-25T22:08:56.764Z,13.57
2018-11-25T22:11:28.334Z,14.50
2018-11-25T22:13:59.867Z,12.67
2018-11-25T22:16:31.443Z,14.50
2018-11-25T22:19:02.869Z,14.80
2018-11-25T22:21:34.446Z,10.97
2018-11-25T22:24:05.881Z,13.03
2018-11-25T22:26:37.445Z,12.97
2018-11-25T22:29:09.067Z,12.90
2018-11-25T22:31:40.669Z,13.47
2018-11-25T22:34:12.200Z,11.10
2018-11-25T22:36:43.666Z,12.43
2018-11-25T22:39:15.083Z,15.30
2018-11-25T22:41:46.680Z,13.83
2018-11-25T22:44:18.274Z,12.87
2018-11-25T22:46:49.790Z,13.67
2018-11-25T22:49:21.382Z,9.60
2018-11-25T22:51:52.893Z,13.90
2018-11-25T22:54:24.414Z,14.87
2018-11-25T22:56:55.901Z,11.57
2018-11-25T22:59:27.497Z,13.00
2018-11-25T23:01:59.007Z,12.67
2018-11-25T23:04:46.803Z,11.63
2018-11-25T23:07:18.486Z,12.67
2018-11-25T23:09:49.988Z,12.30
2018-11-25T23:12:21.618Z,13.97
2018-11-25T23:14:53.135Z,9.67
2018-11-25T23:17:24.711Z,10.23
2018-11-25T23:19:56.128Z,14.10
2018-11-25T23:22:27.710Z,11.70
2018-11-25T23:24:59.311Z,13.17
2018-11-25T23:27:30.835Z,11.40
2018-11-25T23:30:02.425Z,13.37
2018-11-25T23:32:33.934Z,11.30
2018-11-25T23:35:05.910Z,10.70
2018-11-25T23:37:37.361Z,9.23
2018-11-25T23:40:10.366Z,9.90
2018-11-25T23:42:41.914Z,10.40
2018-11-25T23:45:16.743Z,8.53
2018-11-25T23:47:48.571Z,8.70
2018-11-25T23:50:20.166Z,10.17
2018-11-25T23:52:51.992Z,10.57
2018-11-25T23:55:23.460Z,7.90
2018-11-25T23:57:55.046Z,10.47
